createdAt,value
2022-08-24T00:00:21.808Z,74776.00
2022-08-24T00:02:51.208Z,74773.88
2022-08-24T00:05:21.350Z,74792.91
2022-08-24T00:07:50.436Z,74809.84
2022-08-24T00:10:19.266Z,74809.84
2022-08-24T00:12:47.233Z,74803.50
2022-08-24T00:15:16.408Z,74790.81
2022-08-24T00:17:44.870Z,74792.91
2022-08-24T00:20:14.509Z,74792.91
2022-08-24T00:22:42.563Z,74784.44
2022-08-24T00:25:12.318Z,74788.69
2022-08-24T00:27:42.334Z,74784.44
2022-08-24T00:30:15.466Z,74795.03
2022-08-24T00:32:43.324Z,74799.25
2022-08-24T00:35:12.023Z,74797.16
2022-08-24T00:37:41.623Z,74807.72
2022-08-24T00:40:13.166Z,74820.41
2022-08-24T00:42:41.221Z,74822.53
2022-08-24T00:45:12.183Z,74818.31
2022-08-24T00:47:47.677Z,74816.19
2022-08-24T00:50:20.091Z,74811.97
2022-08-24T00:52:51.992Z,74814.06
2022-08-24T00:55:22.013Z,74818.31
2022-08-24T00:57:51.418Z,74824.66
2022-08-24T01:00:23.474Z,74837.34
2022-08-24T01:02:56.815Z,74835.22
2022-08-24T01:05:24.823Z,74835.22
2022-08-24T01:07:53.969Z,74843.69
2022-08-24T01:10:25.181Z,74841.59
2022-08-24T01:13:00.635Z,74850.03
2022-08-24T01:15:30.136Z,74847.94
2022-08-24T01:18:15.793Z,74843.69
2022-08-24T01:20:44.703Z,74847.94
2022-08-24T01:23:17.240Z,74847.94
2022-08-24T01:25:46.466Z,74858.50
2022-08-24T01:28:16.711Z,74847.94
2022-08-24T01:30:49.604Z,74852.16
2022-08-24T01:33:25.326Z,74854.28
2022-08-24T01:35:56.363Z,74854.28
2022-08-24T01:38:24.164Z,74852.16
2022-08-24T01:40:57.683Z,74852.16
2022-08-24T01:43:25.588Z,74852.16
2022-08-24T01:45:53.996Z,74850.03
2022-08-24T01:48:23.111Z,74854.28
2022-08-24T01:50:52.637Z,74850.03
2022-08-24T01:53:20.899Z,74858.50
2022-08-24T01:55:48.855Z,74862.75
2022-08-24T01:58:18.004Z,74856.38
2022-08-24T02:00:46.060Z,74854.28
2022-08-24T02:03:13.880Z,74864.84
2022-08-24T02:05:41.777Z,74869.09
2022-08-24T02:08:09.480Z,74864.84
2022-08-24T02:10:37.507Z,74860.63
2022-08-24T02:13:06.236Z,74856.38
2022-08-24T02:15:40.325Z,74856.38
2022-08-24T02:18:14.996Z,74854.28
2022-08-24T02:20:43.600Z,74858.50
2022-08-24T02:23:11.589Z,74864.84
2022-08-24T02:25:39.530Z,74858.50
2022-08-24T02:28:07.309Z,74869.09
2022-08-24T02:30:36.447Z,74862.75
2022-08-24T02:33:04.373Z,74873.31
2022-08-24T02:35:32.228Z,74879.66
2022-08-24T02:38:00.089Z,74881.78
2022-08-24T02:40:28.504Z,74881.78
2022-08-24T02:42:56.725Z,74883.91
2022-08-24T02:45:24.490Z,74881.78
2022-08-24T02:47:53.749Z,74883.91
2022-08-24T02:50:21.672Z,74883.91
2022-08-24T02:52:49.408Z,74890.25
2022-08-24T02:55:19.866Z,74900.81
2022-08-24T02:57:48.232Z,74924.09
2022-08-24T03:00:19.282Z,74941.03
2022-08-24T03:02:47.154Z,74951.59
2022-08-24T03:05:17.210Z,74945.25
2022-08-24T03:07:45.309Z,74938.91
2022-08-24T03:10:13.148Z,74945.25
2022-08-24T03:12:41.359Z,74962.19
2022-08-24T03:15:11.356Z,74970.66
2022-08-24T03:17:40.316Z,74955.84
2022-08-24T03:20:12.378Z,74962.19
2022-08-24T03:22:42.688Z,74947.38
2022-08-24T03:25:11.250Z,74951.59
2022-08-24T03:27:39.503Z,74951.59
2022-08-24T03:30:10.338Z,74949.50
2022-08-24T03:32:39.757Z,74949.50
2022-08-24T03:35:08.590Z,74951.59
2022-08-24T03:37:36.360Z,74957.97
2022-08-24T03:40:06.572Z,74962.19
2022-08-24T03:42:40.543Z,74962.19
2022-08-24T03:45:09.630Z,74977.00
2022-08-24T03:47:40.657Z,74979.13
2022-08-24T03:50:12.076Z,74991.81
2022-08-24T03:52:41.854Z,74998.16
2022-08-24T03:55:11.692Z,75008.75
2022-08-24T03:57:39.596Z,75010.84
2022-08-24T04:00:11.064Z,75015.09
2022-08-24T04:02:39.385Z,75002.38
2022-08-24T04:05:08.232Z,75034.13
2022-08-24T04:07:36.338Z,75019.31
2022-08-24T04:10:05.477Z,75006.63
2022-08-24T04:12:34.667Z,75006.63
2022-08-24T04:15:02.444Z,75006.63
2022-08-24T04:17:30.669Z,74996.03
2022-08-24T04:19:58.414Z,74991.81
2022-08-24T04:22:27.269Z,74983.34
2022-08-24T04:24:55.281Z,74983.34
2022-08-24T04:27:23.544Z,74985.47
2022-08-24T04:29:53.087Z,74993.94
2022-08-24T04:32:20.840Z,75004.50
2022-08-24T04:34:48.712Z,74993.94
2022-08-24T04:37:17.777Z,74996.03
2022-08-24T04:39:50.555Z,75004.50
2022-08-24T04:42:19.898Z,74998.16
2022-08-24T04:44:47.640Z,74983.34
2022-08-24T04:47:16.802Z,74972.78
2022-08-24T04:49:44.554Z,74974.88
2022-08-24T04:52:12.332Z,74962.19
2022-08-24T04:54:40.029Z,74953.72
2022-08-24T04:57:07.808Z,74949.50
2022-08-24T04:59:35.606Z,74945.25
2022-08-24T05:02:48.284Z,74941.03
2022-08-24T05:05:17.672Z,74936.78
2022-08-24T05:07:45.792Z,74936.78
2022-08-24T05:10:14.943Z,74936.78
2022-08-24T05:12:44.255Z,74928.34
2022-08-24T05:15:13.002Z,74926.22
2022-08-24T05:17:42.395Z,74917.75
2022-08-24T05:20:18.519Z,74913.53
2022-08-24T05:22:46.292Z,74900.81
2022-08-24T05:25:14.750Z,74894.47
2022-08-24T05:27:42.528Z,74898.72
2022-08-24T05:30:12.079Z,74883.91
2022-08-24T05:32:39.865Z,74871.19
2022-08-24T05:35:09.791Z,74866.97
2022-08-24T05:37:40.007Z,74860.63
2022-08-24T05:40:11.588Z,74854.28
2022-08-24T05:42:40.359Z,74852.16
2022-08-24T05:45:09.136Z,74837.34
2022-08-24T05:47:37.254Z,74828.88
2022-08-24T05:50:05.894Z,74818.31
2022-08-24T05:52:34.929Z,74814.06
2022-08-24T05:55:08.036Z,74799.25
2022-08-24T05:57:36.983Z,74784.44
2022-08-24T06:00:07.293Z,74771.75
2022-08-24T06:02:35.482Z,74763.28
2022-08-24T06:05:03.539Z,74752.72
2022-08-24T06:07:31.338Z,74746.38
2022-08-24T06:10:14.685Z,74733.66
2022-08-24T06:12:48.602Z,74731.56
2022-08-24T06:15:17.186Z,74716.75
2022-08-24T06:17:45.401Z,74720.97
2022-08-24T06:20:13.279Z,74720.97
2022-08-24T06:22:41.051Z,74704.06
2022-08-24T06:25:23.631Z,74704.06
2022-08-24T06:27:52.988Z,74699.81
2022-08-24T06:30:20.891Z,74691.34
2022-08-24T06:33:00.240Z,74682.91
2022-08-24T06:35:27.990Z,74668.09
2022-08-24T06:37:57.441Z,74657.50
2022-08-24T06:40:26.334Z,74640.56
2022-08-24T06:42:55.685Z,74625.78
2022-08-24T06:45:23.406Z,74621.53
2022-08-24T06:47:51.220Z,74606.72
2022-08-24T06:50:19.168Z,74594.03
2022-08-24T06:52:51.521Z,74585.56
2022-08-24T06:55:19.936Z,74568.63
2022-08-24T06:57:52.136Z,74551.72
2022-08-24T07:00:23.338Z,74528.44
2022-08-24T07:02:51.150Z,74522.09
2022-08-24T07:05:19.219Z,74509.41
2022-08-24T07:07:48.028Z,74534.78
2022-08-24T07:10:15.837Z,74528.44
2022-08-24T07:12:43.588Z,74511.53
2022-08-24T07:15:16.440Z,74492.47
2022-08-24T07:17:46.317Z,74473.44
2022-08-24T07:20:14.202Z,74467.09
2022-08-24T07:22:41.996Z,74458.63
2022-08-24T07:25:10.944Z,74450.16
2022-08-24T07:27:39.674Z,74458.63
2022-08-24T07:30:27.266Z,74439.59
2022-08-24T07:32:57.832Z,74426.88
2022-08-24T07:35:34.269Z,74409.97
2022-08-24T07:38:02.978Z,74409.97
2022-08-24T07:40:36.446Z,74403.63
2022-08-24T07:43:17.683Z,74399.38
2022-08-24T07:45:45.967Z,74374.00
2022-08-24T07:48:15.192Z,74359.19
2022-08-24T07:50:43.087Z,74352.84
2022-08-24T07:53:14.869Z,74348.59
2022-08-24T07:55:46.102Z,74361.31
2022-08-24T07:58:15.264Z,74376.13
2022-08-24T08:00:47.905Z,74352.84
2022-08-24T08:03:17.082Z,74346.50
2022-08-24T08:05:45.057Z,74338.03
2022-08-24T08:08:13.132Z,74357.06
2022-08-24T08:10:40.932Z,74348.59
2022-08-24T08:13:09.231Z,74319.00
2022-08-24T08:15:39.109Z,74306.31
2022-08-24T08:18:07.816Z,74302.06
2022-08-24T08:20:38.808Z,74299.94
2022-08-24T08:23:24.450Z,74310.53
2022-08-24T08:25:54.469Z,74293.59
2022-08-24T08:28:26.019Z,74278.78
2022-08-24T08:31:01.155Z,74264.00
2022-08-24T08:33:29.706Z,74259.75
2022-08-24T08:36:05.171Z,74242.84
2022-08-24T08:38:33.464Z,74225.91
2022-08-24T08:41:17.355Z,74213.22
2022-08-24T08:43:48.766Z,74242.84
2022-08-24T08:46:40.929Z,74225.91
2022-08-24T08:49:40.715Z,74204.75
2022-08-24T08:52:41.373Z,74170.91
2022-08-24T08:55:23.493Z,74139.16
2022-08-24T08:58:01.885Z,74113.78
2022-08-24T09:00:46.758Z,74107.44
2022-08-24T09:03:30.019Z,74094.75
2022-08-24T09:09:28.258Z,74141.28
2022-08-24T09:12:06.802Z,74132.81
2022-08-24T09:15:29.243Z,74111.66
2022-08-24T09:18:06.717Z,74103.22
2022-08-24T09:20:57.437Z,74082.06
2022-08-24T09:23:31.813Z,74077.81
2022-08-24T09:26:05.120Z,74069.34
2022-08-24T09:28:46.753Z,74052.44
2022-08-24T09:31:53.920Z,74052.44
2022-08-24T09:34:32.297Z,74052.44
2022-08-24T09:37:06.557Z,74037.63
2022-08-24T09:39:54.964Z,74016.47
2022-08-24T09:43:06.155Z,74014.34
2022-08-24T09:46:03.442Z,74039.75
2022-08-24T09:52:04.752Z,74031.28
2022-08-24T09:54:57.551Z,74024.94
2022-08-24T09:58:00.927Z,74022.81
2022-08-24T10:01:17.687Z,74005.91
2022-08-24T10:04:12.448Z,74016.47
2022-08-24T10:06:54.785Z,73999.53
2022-08-24T10:09:42.288Z,73980.50
2022-08-24T10:12:24.114Z,73967.81
2022-08-24T10:21:46.992Z,73963.59
2022-08-24T10:25:03.323Z,73946.66
2022-08-24T10:27:49.470Z,73929.75
2022-08-24T10:30:48.486Z,73919.16
2022-08-24T10:33:21.612Z,73914.94
2022-08-24T10:36:00.497Z,73912.81
2022-08-24T10:38:49.572Z,73912.81
2022-08-24T10:41:57.898Z,73946.66
2022-08-24T10:44:46.139Z,73933.97
2022-08-24T10:47:22.357Z,73933.97
2022-08-24T10:50:13.545Z,73938.19
2022-08-24T10:53:23.844Z,73950.91
2022-08-24T10:56:05.254Z,73917.03
2022-08-24T10:58:57.773Z,73898.00
2022-08-24T11:01:30.531Z,73906.47
2022-08-24T11:04:06.231Z,73900.13
2022-08-24T11:06:36.498Z,73891.66
2022-08-24T11:09:09.516Z,73891.66
2022-08-24T11:11:41.088Z,73900.13
2022-08-24T11:14:11.579Z,73878.97
2022-08-24T11:16:42.727Z,73853.59
2022-08-24T11:19:14.231Z,73857.81
2022-08-24T11:21:48.997Z,73857.81
2022-08-24T11:24:30.833Z,73838.78
2022-08-24T11:27:00.768Z,73830.31
2022-08-24T11:29:31.449Z,73845.13
2022-08-24T11:32:00.601Z,73874.75
2022-08-24T11:34:35.649Z,73866.28
2022-08-24T11:37:09.491Z,73857.81
2022-08-24T11:39:54.156Z,73853.59
2022-08-24T11:42:52.589Z,73862.03
2022-08-24T11:45:28.691Z,73817.63
2022-08-24T11:48:08.123Z,73811.28
2022-08-24T11:50:53.261Z,73790.13
2022-08-24T11:56:18.709Z,73800.69
2022-08-24T11:58:56.669Z,73781.66
2022-08-24T12:01:27.593Z,73794.34
2022-08-24T12:04:06.990Z,73773.19
2022-08-24T12:06:46.120Z,73773.19
2022-08-24T12:09:25.538Z,73788.00
2022-08-24T12:11:59.696Z,73785.91
2022-08-24T12:14:32.623Z,73794.34
2022-08-24T12:17:03.901Z,73807.03
2022-08-24T12:19:34.143Z,73817.63
2022-08-24T12:22:07.448Z,73838.78
2022-08-24T12:24:40.963Z,73823.97
2022-08-24T12:27:11.874Z,73792.25
2022-08-24T12:29:44.625Z,73785.91
2022-08-24T12:32:15.966Z,73779.56
2022-08-24T12:34:58.393Z,73764.75
2022-08-24T12:37:31.406Z,73752.06
2022-08-24T12:40:14.101Z,73733.00
2022-08-24T12:42:51.754Z,73703.41
2022-08-24T12:45:22.692Z,73678.00
2022-08-24T12:47:54.957Z,73671.66
2022-08-24T12:50:29.216Z,73669.56
2022-08-24T12:53:22.920Z,73663.22
2022-08-24T12:56:17.882Z,73671.66
2022-08-24T12:59:07.739Z,73697.06
2022-08-24T13:01:37.504Z,73709.75
2022-08-24T13:04:09.223Z,73713.97
2022-08-24T13:06:44.276Z,73684.38
2022-08-24T13:09:18.728Z,73680.13
2022-08-24T13:11:48.214Z,73663.22
2022-08-24T13:14:21.676Z,73656.88
2022-08-24T13:16:55.745Z,73637.81
2022-08-24T13:19:36.436Z,73610.31
2022-08-24T13:22:38.643Z,73574.38
2022-08-24T13:25:47.668Z,73578.59
2022-08-24T13:28:42.112Z,73563.78
2022-08-24T13:31:20.336Z,73506.69
2022-08-24T13:33:51.382Z,73485.53
2022-08-24T13:36:41.776Z,73455.91
2022-08-24T13:39:16.928Z,73426.31
2022-08-24T13:42:07.726Z,73398.81
2022-08-24T13:44:54.931Z,73417.84
2022-08-24T13:47:27.754Z,73443.22
2022-08-24T13:50:05.199Z,73403.03
2022-08-24T13:52:41.721Z,73409.38
2022-08-24T13:55:30.894Z,73386.13
2022-08-24T13:58:12.115Z,73379.78
2022-08-24T14:00:44.163Z,73369.19
2022-08-24T14:03:29.554Z,73348.03
2022-08-24T14:06:06.410Z,73331.13
2022-08-24T14:08:46.515Z,73337.47
2022-08-24T14:11:18.742Z,73358.63
2022-08-24T14:13:56.403Z,73314.22
2022-08-24T14:16:57.830Z,73280.38
2022-08-24T14:19:33.042Z,73286.72
2022-08-24T14:22:07.389Z,73309.97
2022-08-24T14:24:45.298Z,73331.13
2022-08-24T14:27:37.123Z,73403.03
2022-08-24T14:30:43.499Z,73472.84
2022-08-24T14:33:20.420Z,73529.94
2022-08-24T14:36:00.563Z,73574.38
2022-08-24T14:38:37.322Z,73618.78
2022-08-24T14:41:19.780Z,73648.41
2022-08-24T14:44:14.266Z,73684.38
2022-08-24T14:46:49.726Z,73716.09
2022-08-24T14:49:26.193Z,73747.81
2022-08-24T14:52:02.941Z,73756.28
2022-08-24T14:54:41.164Z,73768.97
2022-08-24T14:57:21.661Z,73807.03
2022-08-24T14:59:58.760Z,73836.66
2022-08-24T15:02:58.456Z,73859.94
2022-08-24T15:05:32.358Z,73876.84
2022-08-24T15:08:02.676Z,73898.00
2022-08-24T15:10:37.677Z,73904.34
2022-08-24T15:13:09.284Z,73910.69
2022-08-24T15:15:40.792Z,73923.41
2022-08-24T15:18:15.707Z,73929.75
2022-08-24T15:20:55.707Z,73969.94
2022-08-24T15:23:28.348Z,74005.91
2022-08-24T15:26:01.185Z,74043.97
2022-08-24T15:28:33.965Z,74052.44
2022-08-24T15:31:07.605Z,74067.25
2022-08-24T15:33:37.702Z,74103.22
2022-08-24T15:36:14.095Z,74132.81
2022-08-24T15:38:42.742Z,74128.59
2022-08-24T15:41:15.047Z,74128.59
2022-08-24T15:43:46.130Z,74164.56
2022-08-24T15:46:14.225Z,74219.56
2022-08-24T15:48:48.682Z,74299.94
2022-08-24T15:51:37.593Z,74429.00
2022-08-24T15:54:21.550Z,74536.91
2022-08-24T15:56:57.663Z,74655.38
2022-08-24T15:59:28.575Z,74699.81
2022-08-24T16:02:33.534Z,74763.28
2022-08-24T16:05:15.442Z,74896.59
2022-08-24T16:08:10.982Z,74949.50
2022-08-24T16:10:43.083Z,74972.78
2022-08-24T16:13:19.687Z,74941.03
2022-08-24T16:15:50.797Z,74902.94
2022-08-24T16:18:20.299Z,74896.59
2022-08-24T16:20:49.670Z,74888.13
2022-08-24T16:23:26.893Z,74858.50
2022-08-24T16:26:21.448Z,74856.38
2022-08-24T16:28:51.393Z,74869.09
2022-08-24T16:31:44.505Z,74879.66
2022-08-24T16:34:19.648Z,74869.09
2022-08-24T16:36:48.632Z,74866.97
2022-08-24T16:39:18.569Z,74841.59
2022-08-24T16:41:47.508Z,74820.41
2022-08-24T16:44:16.191Z,74814.06
2022-08-24T16:46:47.273Z,74818.31
2022-08-24T16:49:16.591Z,74858.50
2022-08-24T16:51:45.553Z,74852.16
2022-08-24T16:54:14.293Z,74847.94
2022-08-24T16:56:44.176Z,74883.91
2022-08-24T16:59:15.385Z,74924.09
2022-08-24T17:01:45.426Z,74955.84
2022-08-24T17:04:13.715Z,74966.41
2022-08-24T17:06:42.599Z,74962.19
2022-08-24T17:09:11.706Z,74968.53
2022-08-24T17:11:40.080Z,74974.88
2022-08-24T17:14:11.011Z,74968.53
2022-08-24T17:16:41.761Z,74962.19
2022-08-24T17:19:12.276Z,74974.88
2022-08-24T17:21:43.014Z,74977.00
2022-08-24T17:24:12.633Z,74970.66
2022-08-24T17:26:44.958Z,74985.47
2022-08-24T17:29:21.352Z,74996.03
2022-08-24T17:31:51.375Z,75015.09
2022-08-24T17:34:21.913Z,75023.56
2022-08-24T17:37:05.866Z,75029.91
2022-08-24T17:39:34.246Z,75046.81
2022-08-24T17:42:05.403Z,75048.94
2022-08-24T17:44:42.025Z,75063.75
2022-08-24T17:47:13.253Z,75053.19
2022-08-24T17:52:39.746Z,75036.25
2022-08-24T17:57:52.943Z,75023.56
2022-08-24T18:00:24.134Z,75036.25
2022-08-24T18:02:52.438Z,75032.00
2022-08-24T18:08:17.182Z,75046.81
2022-08-24T18:10:46.150Z,75046.81
2022-08-24T18:16:21.125Z,75061.63
2022-08-24T18:19:10.417Z,75072.22
2022-08-24T18:21:38.959Z,75084.91
2022-08-24T18:24:09.117Z,75087.03
2022-08-24T18:26:38.496Z,75095.50
2022-08-24T18:29:24.487Z,75093.38
2022-08-24T18:31:54.895Z,75093.38
2022-08-24T18:34:23.289Z,75095.50
2022-08-24T18:36:52.207Z,75091.25
2022-08-24T18:39:21.416Z,75097.59
2022-08-24T18:41:52.980Z,75118.78
2022-08-24T18:44:21.199Z,75114.53
2022-08-24T18:46:55.521Z,75101.84
2022-08-24T18:49:25.621Z,75103.97
2022-08-24T18:51:55.770Z,75116.66
2022-08-24T18:54:25.422Z,75112.41
2022-08-24T18:56:54.574Z,75114.53
2022-08-24T18:59:23.613Z,75142.03
2022-08-24T19:02:10.531Z,75142.03
2022-08-24T19:04:44.452Z,75146.28
2022-08-24T19:07:14.048Z,75163.22
2022-08-24T19:09:42.186Z,75173.78
2022-08-24T19:12:19.867Z,75171.66
2022-08-24T19:14:48.973Z,75169.56
2022-08-24T19:17:19.428Z,75158.97
2022-08-24T19:19:48.985Z,75173.78
2022-08-24T19:22:22.040Z,75156.84
2022-08-24T19:25:40.379Z,75156.84
2022-08-24T19:28:09.088Z,75139.94
2022-08-24T19:30:37.599Z,75139.94
2022-08-24T19:33:11.975Z,75139.94
2022-08-24T19:35:43.908Z,75146.28
2022-08-24T19:38:14.019Z,75144.16
2022-08-24T19:40:47.653Z,75152.63
2022-08-24T19:43:16.918Z,75150.50
2022-08-24T19:46:06.512Z,75146.28
2022-08-24T19:48:36.559Z,75144.16
2022-08-24T19:51:08.322Z,75144.16
2022-08-24T19:53:39.403Z,75137.81
2022-08-24T19:56:08.482Z,75133.59
2022-08-24T19:58:41.711Z,75139.94
2022-08-24T20:01:13.442Z,75133.59
2022-08-24T20:03:41.822Z,75127.22
2022-08-24T20:06:11.389Z,75125.13
2022-08-24T20:08:40.093Z,75120.88
2022-08-24T20:11:09.599Z,75118.78
2022-08-24T20:13:37.773Z,75123.00
2022-08-24T20:16:06.337Z,75110.31
2022-08-24T20:18:41.297Z,75106.06
2022-08-24T20:21:19.184Z,75091.25
2022-08-24T20:23:48.544Z,75082.81
2022-08-24T20:26:17.800Z,75076.44
2022-08-24T20:28:48.671Z,75080.69
2022-08-24T20:31:17.341Z,75076.44
2022-08-24T20:33:46.752Z,75082.81
2022-08-24T20:36:26.972Z,75087.03
2022-08-24T20:38:57.287Z,75074.34
2022-08-24T20:41:27.424Z,75067.97
2022-08-24T20:43:59.885Z,75067.97
2022-08-24T20:46:28.721Z,75078.56
2022-08-24T20:48:57.985Z,75078.56
2022-08-24T20:51:29.640Z,75080.69
2022-08-24T20:54:05.374Z,75063.75
2022-08-24T20:56:35.716Z,75055.28
2022-08-24T20:59:06.977Z,75057.41
2022-08-24T21:01:34.838Z,75044.72
2022-08-24T21:04:05.527Z,75038.38
2022-08-24T21:06:36.056Z,75034.13
2022-08-24T21:09:06.718Z,75025.66
2022-08-24T21:11:39.061Z,75025.66
2022-08-24T21:14:09.102Z,75021.44
2022-08-24T21:16:39.864Z,75015.09
2022-08-24T21:19:09.353Z,75019.31
2022-08-24T21:21:42.215Z,75017.19
2022-08-24T21:24:12.286Z,75012.97
2022-08-24T21:26:40.994Z,75015.09
2022-08-24T21:29:10.592Z,75008.75
2022-08-24T21:31:41.065Z,75002.38
2022-08-24T21:34:37.752Z,75004.50
2022-08-24T21:37:07.792Z,75000.28
2022-08-24T21:39:36.366Z,75006.63
2022-08-24T21:42:06.065Z,75012.97
2022-08-24T21:44:38.443Z,75015.09
2022-08-24T21:47:07.917Z,75012.97
2022-08-24T21:49:36.501Z,75010.84
2022-08-24T21:52:05.011Z,75004.50
2022-08-24T21:54:34.828Z,75006.63
2022-08-24T21:57:03.606Z,75004.50
2022-08-24T21:59:31.898Z,75008.75
2022-08-24T22:02:00.117Z,75008.75
2022-08-24T22:04:29.193Z,75015.09
2022-08-24T22:06:58.591Z,75017.19
2022-08-24T22:09:27.628Z,75012.97
2022-08-24T22:12:00.063Z,75008.75
2022-08-24T22:14:28.195Z,75010.84
2022-08-24T22:16:58.804Z,75006.63
2022-08-24T22:19:32.160Z,75012.97
2022-08-24T22:22:00.089Z,75015.09
2022-08-24T22:24:31.052Z,75023.56
2022-08-24T22:27:02.022Z,75034.13
2022-08-24T22:29:30.571Z,75021.44
2022-08-24T22:31:59.489Z,75017.19
2022-08-24T22:34:27.747Z,75023.56
2022-08-24T22:36:59.428Z,75023.56
2022-08-24T22:39:28.993Z,75023.56
2022-08-24T22:41:57.067Z,75015.09
2022-08-24T22:44:27.819Z,75015.09
2022-08-24T22:46:58.174Z,75017.19
2022-08-24T22:49:29.300Z,75021.44
2022-08-24T22:51:58.503Z,75023.56
2022-08-24T22:54:28.143Z,75023.56
2022-08-24T22:56:57.657Z,75029.91
2022-08-24T22:59:30.059Z,75025.66
2022-08-24T23:01:59.013Z,75023.56
2022-08-24T23:04:32.109Z,75021.44
2022-08-24T23:07:00.324Z,75025.66
2022-08-24T23:09:28.448Z,75029.91
2022-08-24T23:12:09.174Z,75029.91
2022-08-24T23:14:43.673Z,75027.78
2022-08-24T23:17:12.434Z,75025.66
2022-08-24T23:19:54.561Z,75025.66
2022-08-24T23:22:23.549Z,75021.44
2022-08-24T23:24:55.397Z,75025.66
2022-08-24T23:27:23.682Z,75038.38
2022-08-24T23:29:54.598Z,75036.25
2022-08-24T23:32:23.582Z,75034.13
2022-08-24T23:34:52.195Z,75029.91
2022-08-24T23:37:20.127Z,75036.25
2022-08-24T23:39:48.174Z,75036.25
2022-08-24T23:42:16.802Z,75042.59
2022-08-24T23:44:44.734Z,75059.53
2022-08-24T23:47:14.248Z,75051.06
2022-08-24T23:49:42.911Z,75057.41
2022-08-24T23:52:26.173Z,75063.75
2022-08-24T23:55:11.573Z,75059.53
2022-08-24T23:57:44.927Z,75061.63
